Time;durP1;ratioP1;P1;durP2;ratioP2;P2;SDS_P1;SDS_P2;PMS_P1;PMS_P2;Temp;Humidity;BMP_temperature;BMP_pressure;BME280_temperature;BME280_humidity;BME280_pressure;Samples;Min_cycle;Max_cycle;Signal;HPM_P1;HPM_P2
2023/12/14 00:01:57;;;;;;;;;;;;;;;4.37;100.00;95452.13;5083619;28;19996;-70
2023/12/14 00:04:23;;;;;;;;;;;;;;;4.38;100.00;95453.72;5083782;28;19951;-71
2023/12/14 00:06:49;;;;;;;;;;;;;;;4.40;100.00;95459.50;5083948;28;19996;-71
2023/12/14 00:09:15;;;;;;;;;;;;;;;4.41;100.00;95461.09;5083831;28;19954;-70
2023/12/14 00:11:41;;;;;;;;;;;;;;;4.43;100.00;95468.66;5083840;28;19959;-70
2023/12/14 00:14:07;;;;;;;;;;;;;;;4.45;100.00;95466.66;5082432;28;20057;-73
2023/12/14 00:16:32;;;;;;;;;;;;;;;4.47;100.00;95475.06;5084008;28;19958;-70
2023/12/14 00:18:58;;;;;;;;;;;;;;;4.48;100.00;95481.84;5083969;28;19959;-70
2023/12/14 00:21:24;;;;;;;;;;;;;;;4.48;100.00;95477.47;5082614;28;19954;-70
2023/12/14 00:23:50;;;;;;;;;;;;;;;4.48;100.00;95485.25;5082583;28;19963;-70
2023/12/14 00:26:17;;;;;;;;;;;;;;;4.48;100.00;95482.66;5083980;28;19954;-71
2023/12/14 00:28:43;;;;;;;;;;;;;;;4.48;100.00;95484.44;5083746;28;20223;-69
2023/12/14 00:31:09;;;;;;;;;;;;;;;4.48;100.00;95481.84;5083683;28;19972;-69
2023/12/14 00:33:35;;;;;;;;;;;;;;;4.48;100.00;95490.44;5083725;28;19968;-74
2023/12/14 00:36:01;;;;;;;;;;;;;;;4.49;100.00;95488.63;5084076;28;20123;-79
2023/12/14 00:38:26;;;;;;;;;;;;;;;4.48;100.00;95493.03;5082140;28;20004;-80
2023/12/14 00:40:52;;;;;;;;;;;;;;;4.48;100.00;95487.84;5082248;28;20302;-81
2023/12/14 00:43:18;;;;;;;;;;;;;;;4.49;100.00;95496.41;5083826;28;20155;-80
2023/12/14 00:45:44;;;;;;;;;;;;;;;4.48;100.00;95500.03;5082081;28;20049;-81
2023/12/14 00:48:10;;;;;;;;;;;;;;;4.48;100.00;95497.44;5084042;28;19961;-82
2023/12/14 00:50:36;;;;;;;;;;;;;;;4.48;100.00;95503.41;5087383;28;19969;-71
2023/12/14 00:53:01;;;;;;;;;;;;;;;4.49;100.00;95499.00;5087608;28;19967;-70
2023/12/14 00:55:27;;;;;;;;;;;;;;;4.51;100.00;95501.41;5086330;28;19943;-70
2023/12/14 00:57:53;;;;;;;;;;;;;;;4.50;100.00;95513.59;5087864;28;20222;-69
2023/12/14 01:00:19;;;;;;;;;;;;;;;4.51;100.00;95511.81;5087551;28;19976;-69
2023/12/14 01:02:45;;;;;;;;;;;;;;;4.52;100.00;95518.59;5087232;28;19977;-70
2023/12/14 01:05:11;;;;;;;;;;;;;;;4.52;100.00;95523.78;5087099;28;20033;-70
2023/12/14 01:07:36;;;;;;;;;;;;;;;4.53;100.00;95523.56;5087342;28;20233;-70
2023/12/14 01:10:03;;;;;;;;;;;;;;;4.54;100.00;95524.38;5086902;28;20215;-70
2023/12/14 01:12:30;;;;;;;;;;;;;;;4.54;100.00;95527.00;5085642;28;19975;-74
2023/12/14 01:14:56;;;;;;;;;;;;;;;4.54;100.00;95532.97;5085792;28;20188;-75
2023/12/14 01:17:22;;;;;;;;;;;;;;;4.54;100.00;95532.97;5085616;28;20167;-74
2023/12/14 01:19:47;;;;;;;;;;;;;;;4.56;100.00;95537.97;5086778;28;19954;-74
2023/12/14 01:22:13;;;;;;;;;;;;;;;4.56;100.00;95545.75;5086992;28;19955;-74
2023/12/14 01:24:39;;;;;;;;;;;;;;;4.56;100.00;95549.16;5086486;28;19938;-74
2023/12/14 01:27:05;;;;;;;;;;;;;;;4.56;100.00;95546.56;5087084;28;19955;-70
2023/12/14 01:29:31;;;;;;;;;;;;;;;4.55;100.00;95560.53;5086642;28;19956;-69
2023/12/14 01:31:57;;;;;;;;;;;;;;;4.56;100.00;95556.16;5085820;28;20289;-74
2023/12/14 01:34:22;;;;;;;;;;;;;;;4.56;100.00;95559.53;5085133;28;19958;-75
2023/12/14 01:36:48;;;;;;;;;;;;;;;4.56;100.00;95562.13;5085693;28;20076;-74
2023/12/14 01:39:14;;;;;;;;;;;;;;;4.56;100.00;95572.53;5086684;28;19951;-74
2023/12/14 01:41:40;;;;;;;;;;;;;;;4.55;100.00;95576.09;5086403;28;20260;-74
2023/12/14 01:44:06;;;;;;;;;;;;;;;4.57;100.00;95587.09;5087107;28;20016;-74
2023/12/14 01:46:31;;;;;;;;;;;;;;;4.57;100.00;95588.88;5085495;28;19967;-72
2023/12/14 01:48:57;;;;;;;;;;;;;;;4.57;100.00;95594.88;5086079;28;19958;-70
2023/12/14 01:51:23;;;;;;;;;;;;;;;4.59;100.00;95592.06;5086341;28;20143;-70
2023/12/14 01:53:49;;;;;;;;;;;;;;;4.60;100.00;95596.25;5086298;28;19972;-70
2023/12/14 01:56:15;;;;;;;;;;;;;;;4.61;100.00;95601.25;5086146;28;19939;-70
2023/12/14 01:58:40;;;;;;;;;;;;;;;4.61;100.00;95606.44;5086553;28;19999;-70
2023/12/14 02:01:15;;;;;;;;;;;;;;;4.62;100.00;95600.28;5085096;28;19959;-69
2023/12/14 02:03:48;;;;;;;;;;;;;;;4.61;100.00;95611.66;5086170;28;19967;-70
2023/12/14 02:06:15;;;;;;;;;;;;;;;4.61;100.00;95606.44;5085446;28;19964;-69
2023/12/14 02:08:41;;;;;;;;;;;;;;;4.62;100.00;95610.66;5084786;28;19966;-72
2023/12/14 02:11:06;;;;;;;;;;;;;;;4.62;100.00;95612.44;5086158;28;20178;-73
2023/12/14 02:13:33;;;;;;;;;;;;;;;4.62;100.00;95615.03;5086174;28;20130;-73
2023/12/14 02:15:59;;;;;;;;;;;;;;;4.63;100.00;95622.63;5086494;28;19961;-73
2023/12/14 02:18:25;;;;;;;;;;;;;;;4.64;100.00;95623.44;5085647;28;19989;-74
2023/12/14 02:20:51;;;;;;;;;;;;;;;4.63;100.00;95627.81;5086003;28;20219;-73
2023/12/14 02:23:16;;;;;;;;;;;;;;;4.64;100.00;95621.66;5085741;28;19949;-73
2023/12/14 02:25:42;;;;;;;;;;;;;;;4.65;100.00;95620.63;5085314;28;20020;-69
2023/12/14 02:28:08;;;;;;;;;;;;;;;4.66;100.00;95624.84;5084158;28;19960;-69
2023/12/14 02:30:34;;;;;;;;;;;;;;;4.68;100.00;95627.22;5085811;28;20017;-69
2023/12/14 02:33:00;;;;;;;;;;;;;;;4.66;100.00;95622.25;5085656;28;19957;-69
2023/12/14 02:35:25;;;;;;;;;;;;;;;4.67;100.00;95623.03;5085538;28;19965;-70
2023/12/14 02:37:51;;;;;;;;;;;;;;;4.69;100.00;95623.63;5085746;28;19950;-69
2023/12/14 02:40:17;;;;;;;;;;;;;;;4.68;100.00;95628.03;5085621;28;19956;-70
2023/12/14 02:42:43;;;;;;;;;;;;;;;4.70;100.00;95635.59;5085447;28;20027;-70
2023/12/14 02:45:09;;;;;;;;;;;;;;;4.70;100.00;95629.63;5084207;28;19973;-72
2023/12/14 02:47:35;;;;;;;;;;;;;;;4.72;100.00;95638.00;5085517;28;19975;-73
2023/12/14 02:50:01;;;;;;;;;;;;;;;4.72;100.00;95638.00;5083988;28;20005;-73
2023/12/14 02:52:27;;;;;;;;;;;;;;;4.71;100.00;95641.63;5084951;28;19944;-73
2023/12/14 02:54:53;;;;;;;;;;;;;;;4.70;100.00;95640.81;5085333;28;19953;-73
2023/12/14 02:57:18;;;;;;;;;;;;;;;4.70;100.00;95648.59;5085512;28;19954;-73
2023/12/14 02:59:44;;;;;;;;;;;;;;;4.70;100.00;95647.81;5085321;28;19966;-73
2023/12/14 03:02:10;;;;;;;;;;;;;;;4.70;100.00;95651.19;5084155;28;20227;-73
2023/12/14 03:04:39;;;;;;;;;;;;;;;4.69;100.00;95652.22;5066716;28;19956;-70
2023/12/14 03:07:05;;;;;;;;;;;;;;;4.71;100.00;95654.59;5085184;28;19960;-70
2023/12/14 03:09:31;;;;;;;;;;;;;;;4.68;100.00;95660.97;5083530;28;19970;-70
2023/12/14 03:11:58;;;;;;;;;;;;;;;4.65;100.00;95664.78;5084908;28;19957;-71
2023/12/14 03:14:24;;;;;;;;;;;;;;;4.65;100.00;95669.19;5084970;28;19973;-70
2023/12/14 03:16:50;;;;;;;;;;;;;;;4.66;100.00;95673.38;5083736;28;20215;-70
2023/12/14 03:19:16;;;;;;;;;;;;;;;4.67;100.00;95672.38;5085121;28;19998;-70
2023/12/14 03:21:42;;;;;;;;;;;;;;;4.67;100.00;95675.78;5084060;28;20031;-70
2023/12/14 03:24:11;;;;;;;;;;;;;;;4.68;100.00;95668.78;5083951;28;20180;-70
2023/12/14 03:26:37;;;;;;;;;;;;;;;4.68;100.00;95677.38;5083680;28;19960;-71
2023/12/14 03:29:03;;;;;;;;;;;;;;;4.67;100.00;95685.38;5083587;28;19960;-70
2023/12/14 03:31:29;;;;;;;;;;;;;;;4.65;100.00;95682.16;5085106;28;19966;-69
2023/12/14 03:33:55;;;;;;;;;;;;;;;4.66;100.00;95688.94;5084524;28;20171;-69
2023/12/14 03:36:22;;;;;;;;;;;;;;;4.65;100.00;95689.97;5067216;28;19956;-70
2023/12/14 03:38:48;;;;;;;;;;;;;;;4.65;100.00;95695.16;5084843;28;19979;-73
2023/12/14 03:41:14;;;;;;;;;;;;;;;4.66;100.00;95694.97;5083590;28;19964;-72
2023/12/14 03:43:40;;;;;;;;;;;;;;;4.67;100.00;95701.75;5084849;28;19969;-73
2023/12/14 03:46:06;;;;;;;;;;;;;;;4.70;100.00;95702.34;5084894;28;20124;-72
2023/12/14 03:48:32;;;;;;;;;;;;;;;4.71;100.00;95707.34;5066736;28;19969;-73
2023/12/14 03:51:01;;;;;;;;;;;;;;;4.72;100.00;95710.72;5083251;28;19950;-74
2023/12/14 03:53:27;;;;;;;;;;;;;;;4.72;100.00;95710.72;5083499;28;20282;-74
2023/12/14 03:55:54;;;;;;;;;;;;;;;4.74;100.00;95726.91;5066673;28;19967;-70
2023/12/14 03:58:20;;;;;;;;;;;;;;;4.75;100.00;95731.13;5084395;28;19968;-70
2023/12/14 04:00:46;;;;;;;;;;;;;;;4.77;100.00;95723.94;5084218;28;19954;-70
2023/12/14 04:03:11;;;;;;;;;;;;;;;4.77;100.00;95737.72;5083814;28;19954;-70
2023/12/14 04:05:38;;;;;;;;;;;;;;;4.78;100.00;95734.09;5083964;28;19956;-70
2023/12/14 04:08:04;;;;;;;;;;;;;;;4.80;100.00;95745.09;5082995;28;19963;-70
2023/12/14 04:10:30;;;;;;;;;;;;;;;4.82;100.00;95748.31;5084079;28;20247;-71
2023/12/14 04:12:56;;;;;;;;;;;;;;;4.82;100.00;95752.72;5083647;28;19968;-72
2023/12/14 04:15:22;;;;;;;;;;;;;;;4.84;100.00;95758.50;5084298;28;20096;-71
2023/12/14 04:17:47;;;;;;;;;;;;;;;4.85;100.00;95760.91;5082539;28;19960;-74
2023/12/14 04:20:15;;;;;;;;;;;;;;;4.85;100.00;95758.31;5084064;28;19941;-74
2023/12/14 04:22:42;;;;;;;;;;;;;;;4.85;100.00;95755.72;5083737;28;19966;-74
2023/12/14 04:25:08;;;;;;;;;;;;;;;4.87;100.00;95763.28;5083360;28;20153;-74
2023/12/14 04:27:34;;;;;;;;;;;;;;;4.88;100.00;95768.28;5083902;28;20059;-74
2023/12/14 04:30:00;;;;;;;;;;;;;;;4.90;100.00;95772.50;5083623;28;20012;-74
2023/12/14 04:32:26;;;;;;;;;;;;;;;4.89;100.00;95774.28;5083632;28;19956;-71
2023/12/14 04:34:52;;;;;;;;;;;;;;;4.89;100.00;95784.66;5083984;28;19958;-70
2023/12/14 04:37:18;;;;;;;;;;;;;;;4.92;100.00;95778.31;5082441;28;19959;-69
2023/12/14 04:39:44;;;;;;;;;;;;;;;4.91;100.00;95785.28;5082082;28;20161;-70
2023/12/14 04:42:10;;;;;;;;;;;;;;;4.92;100.00;95786.88;5083744;28;19953;-70
2023/12/14 04:44:35;;;;;;;;;;;;;;;4.93;100.00;95793.66;5083803;28;20232;-70
2023/12/14 04:47:01;;;;;;;;;;;;;;;4.93;100.00;95801.47;5083850;28;20091;-70
2023/12/14 04:49:27;;;;;;;;;;;;;;;4.93;100.00;95795.47;5083444;28;19943;-70
2023/12/14 04:51:53;;;;;;;;;;;;;;;4.93;100.00;95801.47;5083739;28;19954;-73
2023/12/14 04:54:19;;;;;;;;;;;;;;;4.94;100.00;95797.09;5083806;28;20247;-74
2023/12/14 04:56:47;;;;;;;;;;;;;;;4.94;100.00;95804.88;5082500;28;20246;-74
2023/12/14 04:59:13;;;;;;;;;;;;;;;4.94;100.00;95807.50;5082130;28;20131;-74
2023/12/14 05:01:39;;;;;;;;;;;;;;;4.95;100.00;95819.47;5083387;28;19975;-74
2023/12/14 05:04:05;;;;;;;;;;;;;;;4.95;100.00;95811.66;5083415;28;19950;-74
2023/12/14 05:06:33;;;;;;;;;;;;;;;4.95;100.00;95815.06;5083404;28;20029;-74
2023/12/14 05:09:01;;;;;;;;;;;;;;;4.97;100.00;95825.25;5083459;28;19961;-70
2023/12/14 05:11:26;;;;;;;;;;;;;;;4.96;100.00;95826.28;5082055;28;20282;-75
2023/12/14 05:13:52;;;;;;;;;;;;;;;4.97;100.00;95833.06;5081874;28;19972;-73
2023/12/14 05:16:18;;;;;;;;;;;;;;;4.96;100.00;95845.25;5065334;28;19965;-73
2023/12/14 05:18:44;;;;;;;;;;;;;;;4.96;100.00;95845.25;5081695;28;19953;-73
2023/12/14 05:21:15;;;;;;;;;;;;;;;4.96;100.00;95847.84;5083661;28;19965;-73
2023/12/14 05:23:41;;;;;;;;;;;;;;;4.95;100.00;95859.22;5083464;28;19957;-72
2023/12/14 05:26:07;;;;;;;;;;;;;;;4.95;100.00;95864.44;5081968;28;20014;-73
2023/12/14 05:28:33;;;;;;;;;;;;;;;4.95;100.00;95871.44;5065076;28;20075;-73
2023/12/14 05:30:59;;;;;;;;;;;;;;;4.95;100.00;95872.22;5088879;23;19977;-70
2023/12/14 05:33:24;;;;;;;;;;;;;;;4.95;100.00;95874.81;5063450;28;20035;-69
2023/12/14 05:35:50;;;;;;;;;;;;;;;4.96;100.00;95873.84;5066041;28;19981;-71
2023/12/14 05:38:16;;;;;;;;;;;;;;;4.98;100.00;95891.84;5066889;28;20123;-69
2023/12/14 05:40:43;;;;;;;;;;;;;;;4.97;100.00;95895.41;5066943;28;19958;-70
2023/12/14 05:43:09;;;;;;;;;;;;;;;4.98;100.00;95905.63;5066866;28;20238;-69
2023/12/14 05:45:35;;;;;;;;;;;;;;;4.97;100.00;95904.00;5067729;28;19965;-74
2023/12/14 05:48:01;;;;;;;;;;;;;;;4.97;100.00;95904.00;5066953;28;19950;-74
2023/12/14 05:50:27;;;;;;;;;;;;;;;5.00;100.00;95914.03;5066375;28;19957;-75
2023/12/14 05:52:53;;;;;;;;;;;;;;;5.00;100.00;95905.44;5065274;28;20256;-75
2023/12/14 05:55:21;;;;;;;;;;;;;;;5.01;100.00;95918.22;5066948;28;20154;-75
2023/12/14 05:57:47;;;;;;;;;;;;;;;5.03;100.00;95921.41;5066801;28;19955;-75
2023/12/14 06:00:13;;;;;;;;;;;;;;;5.04;100.00;95922.22;5066925;28;20144;-74
2023/12/14 06:02:39;;;;;;;;;;;;;;;5.04;100.00;95923.03;5066380;28;19958;-74
2023/12/14 06:05:06;;;;;;;;;;;;;;;5.06;100.00;95926.25;5066353;28;20269;-69
2023/12/14 06:07:32;;;;;;;;;;;;;;;5.08;100.00;95933.81;5066592;28;19938;-73
2023/12/14 06:09:58;;;;;;;;;;;;;;;5.08;100.00;95928.63;5066483;28;20053;-74
2023/12/14 06:12:23;;;;;;;;;;;;;;;5.08;100.00;95932.03;5048485;28;19955;-73
2023/12/14 06:14:50;;;;;;;;;;;;;;;5.09;100.00;95940.63;5066298;28;20279;-73
2023/12/14 06:17:16;;;;;;;;;;;;;;;5.09;100.00;95944.03;5048596;28;19965;-73
2023/12/14 06:19:41;;;;;;;;;;;;;;;5.09;100.00;95938.84;5065732;28;19960;-73
2023/12/14 06:22:07;;;;;;;;;;;;;;;5.11;100.00;95956.84;5066229;28;19956;-71
2023/12/14 06:24:33;;;;;;;;;;;;;;;5.11;100.00;95953.44;5065807;28;19966;-73
2023/12/14 06:26:59;;;;;;;;;;;;;;;5.09;100.00;95956.22;5048423;28;19959;-73
2023/12/14 06:29:25;;;;;;;;;;;;;;;5.11;100.00;95963.84;5066358;28;19992;-74
2023/12/14 06:31:51;;;;;;;;;;;;;;;5.08;100.00;95967.59;5065780;28;19962;-74
2023/12/14 06:34:16;;;;;;;;;;;;;;;5.08;100.00;95975.41;5065721;28;20002;-75
2023/12/14 06:36:44;;;;;;;;;;;;;;;5.07;100.00;95977.22;5065504;28;20266;-74
2023/12/14 06:39:11;;;;;;;;;;;;;;;5.07;100.00;95969.41;5065899;28;19963;-74
2023/12/14 06:41:37;;;;;;;;;;;;;;;5.06;100.00;95980.00;5066107;28;19956;-73
2023/12/14 06:44:03;;;;;;;;;;;;;;;5.05;100.00;95984.41;5047817;28;19997;-70
2023/12/14 06:46:29;;;;;;;;;;;;;;;5.06;100.00;95990.38;5065243;28;19954;-69
2023/12/14 06:48:55;;;;;;;;;;;;;;;5.05;100.00;95992.19;5065720;28;19959;-69
2023/12/14 06:51:21;;;;;;;;;;;;;;;5.04;100.00;95997.56;5065509;28;19939;-70
2023/12/14 06:53:47;;;;;;;;;;;;;;;5.06;100.00;96000.78;5065189;28;20277;-69
2023/12/14 06:56:13;;;;;;;;;;;;;;;5.05;100.00;96007.78;5065331;28;20024;-69
2023/12/14 06:58:39;;;;;;;;;;;;;;;5.07;100.00;96016.19;5065286;28;19963;-73
2023/12/14 07:01:08;;;;;;;;;;;;;;;5.07;100.00;96018.78;5064614;28;20484;-69
2023/12/14 07:03:33;;;;;;;;;;;;;;;5.09;100.00;96029.78;5065309;28;20021;-69
2023/12/14 07:05:59;;;;;;;;;;;;;;;5.09;100.00;96032.41;5064937;28;19958;-69
2023/12/14 07:08:25;;;;;;;;;;;;;;;5.09;100.00;96040.19;5065222;28;19962;-69
2023/12/14 07:10:51;;;;;;;;;;;;;;;5.11;100.00;96047.81;5065550;28;19952;-69
2023/12/14 07:13:17;;;;;;;;;;;;;;;5.11;100.00;96053.00;5047513;28;19962;-69
2023/12/14 07:15:43;;;;;;;;;;;;;;;5.12;100.00;96061.59;5065393;28;19955;-69
2023/12/14 07:18:08;;;;;;;;;;;;;;;5.12;100.00;96062.38;5065299;28;19957;-70
2023/12/14 07:20:34;;;;;;;;;;;;;;;5.26;100.00;96071.06;5047104;28;19944;-74
2023/12/14 07:23:00;;;;;;;;;;;;;;;5.49;100.00;96074.16;5064732;28;20027;-72
2023/12/14 07:25:26;;;;;;;;;;;;;;;5.55;100.00;96077.00;5064753;28;19954;-73
2023/12/14 07:27:52;;;;;;;;;;;;;;;5.52;100.00;96080.75;5064783;28;19955;-73
2023/12/14 07:30:18;;;;;;;;;;;;;;;5.48;100.00;96082.13;5064762;28;19961;-72
2023/12/14 07:32:44;;;;;;;;;;;;;;;5.44;100.00;96086.94;5046835;28;20033;-72
2023/12/14 07:35:10;;;;;;;;;;;;;;;5.41;100.00;96089.13;5046706;28;19961;-67
2023/12/14 07:37:36;;;;;;;;;;;;;;;5.36;100.00;96097.50;5065578;28;19970;-66
2023/12/14 07:40:03;;;;;;;;;;;;;;;5.32;100.00;96093.69;5064746;28;19976;-74
2023/12/14 07:42:29;;;;;;;;;;;;;;;5.30;100.00;96095.69;5046890;28;19983;-74
2023/12/14 07:44:54;;;;;;;;;;;;;;;5.29;100.00;96104.47;5064268;28;20252;-75
2023/12/14 07:47:20;;;;;;;;;;;;;;;5.28;100.00;96100.28;5064752;28;19991;-74
2023/12/14 07:49:46;;;;;;;;;;;;;;;5.28;100.00;96105.47;5064548;28;19960;-74
2023/12/14 07:52:13;;;;;;;;;;;;;;;5.27;100.00;96114.25;5064590;28;20006;-74
2023/12/14 07:54:39;;;;;;;;;;;;;;;5.27;100.00;96120.28;5064758;28;20112;-70
2023/12/14 07:57:08;;;;;;;;;;;;;;;5.28;100.00;96129.66;5064542;28;19961;-70
2023/12/14 07:59:34;;;;;;;;;;;;;;;5.29;100.00;96127.84;5063762;28;19968;-70
2023/12/14 08:02:00;;;;;;;;;;;;;;;5.29;100.00;96133.88;5064431;28;19978;-70
2023/12/14 08:04:25;;;;;;;;;;;;;;;5.29;100.00;96139.09;5064229;28;20242;-70
2023/12/14 08:06:51;;;;;;;;;;;;;;;5.30;100.00;96145.09;5064214;28;19955;-70
2023/12/14 08:09:17;;;;;;;;;;;;;;;5.32;100.00;96144.91;5064212;28;20145;-70
2023/12/14 08:11:43;;;;;;;;;;;;;;;5.33;100.00;96151.69;5064359;28;19953;-70
2023/12/14 08:14:09;;;;;;;;;;;;;;;5.35;100.00;96155.69;5063809;28;19967;-73
2023/12/14 08:16:34;;;;;;;;;;;;;;;5.38;100.00;96164.94;5064471;28;19961;-73
2023/12/14 08:19:00;;;;;;;;;;;;;;;5.40;100.00;96162.94;5064104;28;19956;-74
2023/12/14 08:21:26;;;;;;;;;;;;;;;5.38;100.00;96164.94;5063790;28;19946;-74
2023/12/14 08:23:52;;;;;;;;;;;;;;;5.40;100.00;96173.34;5064042;28;19968;-74
2023/12/14 08:26:18;;;;;;;;;;;;;;;5.41;100.00;96187.94;5063978;28;19968;-74
2023/12/14 08:28:44;;;;;;;;;;;;;;;5.43;100.00;96191.94;5064159;28;19970;-74
2023/12/14 08:31:11;;;;;;;;;;;;;;;5.44;100.00;96198.78;5064356;28;20255;-70
2023/12/14 08:33:37;;;;;;;;;;;;;;;5.44;100.00;96198.78;5063836;28;19960;-70
2023/12/14 08:36:05;;;;;;;;;;;;;;;5.44;100.00;96196.16;5064148;28;19959;-70
2023/12/14 08:38:31;;;;;;;;;;;;;;;5.44;100.00;96198.78;5063955;28;20134;-70
2023/12/14 08:40:57;;;;;;;;;;;;;;;5.46;100.00;96204.59;5064216;28;19956;-71
2023/12/14 08:43:22;;;;;;;;;;;;;;;5.48;100.00;96209.56;5063624;28;19959;-70
2023/12/14 08:45:48;;;;;;;;;;;;;;;5.45;100.00;96205.56;5064124;28;19972;-71
2023/12/14 08:48:14;;;;;;;;;;;;;;;5.44;100.00;96213.56;5063981;28;19961;-71
2023/12/14 08:50:40;;;;;;;;;;;;;;;5.40;100.00;96218.34;5064227;28;20116;-73
2023/12/14 08:53:06;;;;;;;;;;;;;;;5.40;100.00;96233.94;5063604;28;19965;-70
2023/12/14 08:55:32;;;;;;;;;;;;;;;5.38;100.00;96235.94;5063568;28;19968;-69
2023/12/14 08:57:58;;;;;;;;;;;;;;;5.41;100.00;96237.34;5063630;28;19957;-69
2023/12/14 09:00:24;;;;;;;;;;;;;;;5.45;100.00;96252.38;5063616;28;19960;-69
2023/12/14 09:02:50;;;;;;;;;;;;;;;5.48;100.00;96252.00;5063677;28;19958;-69
2023/12/14 09:05:16;;;;;;;;;;;;;;;5.49;100.00;96256.22;5063634;28;19950;-69
2023/12/14 09:07:42;;;;;;;;;;;;;;;5.53;100.00;96271.44;5063883;28;19969;-70
2023/12/14 09:10:08;;;;;;;;;;;;;;;5.54;100.00;96273.84;5065480;28;20147;-73
2023/12/14 09:12:35;;;;;;;;;;;;;;;5.60;100.00;96286.09;5067642;28;19961;-72
2023/12/14 09:15:01;;;;;;;;;;;;;;;5.64;100.00;96282.13;5067566;28;19971;-72
2023/12/14 09:17:32;;;;;;;;;;;;;;;5.69;100.00;96286.75;5067532;28;19962;-73
2023/12/14 09:19:59;;;;;;;;;;;;;;;5.77;100.00;96294.41;5067459;28;19951;-73
2023/12/14 09:22:25;;;;;;;;;;;;;;;5.84;100.00;96300.47;5066229;28;19985;-72
2023/12/14 09:24:51;;;;;;;;;;;;;;;5.90;100.00;96293.69;5067144;28;19964;-72
2023/12/14 09:27:17;;;;;;;;;;;;;;;5.94;100.00;96307.91;5067064;28;19958;-74
2023/12/14 09:29:42;;;;;;;;;;;;;;;5.92;100.00;96312.50;5067368;28;19960;-73
2023/12/14 09:32:08;;;;;;;;;;;;;;;5.92;100.00;96312.50;5067100;28;19952;-73
2023/12/14 09:34:34;;;;;;;;;;;;;;;5.90;100.00;96310.09;5067177;28;19965;-73
2023/12/14 09:37:00;;;;;;;;;;;;;;;5.88;100.00;96319.09;5067283;28;19969;-73
2023/12/14 09:39:27;;;;;;;;;;;;;;;5.87;100.00;96320.88;5067150;28;19958;-73
2023/12/14 09:42:04;;;;;;;;;;;;;;;5.94;100.00;96327.94;5067065;28;19961;-73
2023/12/14 09:44:30;;;;;;;;;;;;;;;6.01;100.00;96324.41;5066740;28;19968;-70
2023/12/14 09:46:57;;;;;;;;;;;;;;;6.06;100.00;96329.03;5066576;28;20138;-71
2023/12/14 09:49:24;;;;;;;;;;;;;;;6.06;100.00;96319.41;5066433;28;19960;-74
2023/12/14 09:51:50;;;;;;;;;;;;;;;6.01;100.00;96332.22;5066620;28;19960;-74
2023/12/14 09:54:16;;;;;;;;;;;;;;;6.02;100.00;96333.00;5066398;28;20288;-74
2023/12/14 09:56:46;;;;;;;;;;;;;;;6.07;100.00;96338.47;5048517;28;19969;-74
2023/12/14 09:59:12;;;;;;;;;;;;;;;6.10;100.00;96336.25;5066802;28;19964;-74
2023/12/14 10:01:38;;;;;;;;;;;;;;;6.13;100.00;96336.88;5066510;28;19961;-74
2023/12/14 10:04:11;;;;;;;;;;;;;;;6.17;100.00;96346.72;5066618;28;19966;-71
2023/12/14 10:06:37;;;;;;;;;;;;;;;6.20;100.00;96350.75;5066591;28;19953;-73
2023/12/14 10:09:04;;;;;;;;;;;;;;;6.22;100.00;96346.16;5066560;28;20026;-73
2023/12/14 10:11:30;;;;;;;;;;;;;;;6.23;100.00;96356.34;5066658;28;19952;-73
2023/12/14 10:13:56;;;;;;;;;;;;;;;6.27;100.00;96354.19;5066373;28;19940;-74
2023/12/14 10:16:32;;;;;;;;;;;;;;;6.30;100.00;96365.03;5066750;28;19966;-73
2023/12/14 10:18:58;;;;;;;;;;;;;;;6.33;100.00;96376.06;5066459;28;19958;-73
2023/12/14 10:21:25;;;;;;;;;;;;;;;6.39;100.00;96378.69;5065569;28;20007;-74
2023/12/14 10:23:52;;;;;;;;;;;;;;;6.46;100.00;96374.31;5066547;28;19952;-70
2023/12/14 10:26:17;;;;;;;;;;;;;;;6.53;100.00;96376.97;5066067;28;20255;-72
2023/12/14 10:28:43;;;;;;;;;;;;;;;6.67;100.00;96370.78;5065712;28;19955;-72
2023/12/14 10:31:10;;;;;;;;;;;;;;;6.94;100.00;96372.69;5066104;28;19959;-73
2023/12/14 10:33:36;;;;;;;;;;;;;;;7.01;100.00;96368.28;5066133;28;20242;-72
2023/12/14 10:36:03;;;;;;;;;;;;;;;7.01;100.00;96378.72;5065968;28;20012;-73
2023/12/14 10:38:29;;;;;;;;;;;;;;;7.03;100.00;96384.53;5066025;28;20134;-73
2023/12/14 10:40:57;;;;;;;;;;;;;;;7.01;100.00;96382.13;5066247;28;20219;-73
2023/12/14 10:43:24;;;;;;;;;;;;;;;6.99;100.00;96386.75;5065987;28;20242;-70
2023/12/14 10:45:51;;;;;;;;;;;;;;;7.02;100.00;96390.78;5065517;28;20133;-70
2023/12/14 10:48:20;;;;;;;;;;;;;;;7.03;100.00;96390.56;5065061;28;20237;-70
2023/12/14 10:50:46;;;;;;;;;;;;;;;7.02;100.00;96382.94;5065566;28;19958;-70
2023/12/14 10:53:12;;;;;;;;;;;;;;;6.95;100.00;96390.75;5065908;28;20128;-71
2023/12/14 10:55:42;;;;;;;;;;;;;;;6.91;100.00;96392.16;5065449;28;19968;-70
2023/12/14 10:58:08;;;;;;;;;;;;;;;6.85;100.00;96391.13;5065138;28;19962;-67
2023/12/14 11:00:36;;;;;;;;;;;;;;;6.79;100.00;96396.31;5065833;28;19965;-73
2023/12/14 11:03:03;;;;;;;;;;;;;;;6.80;100.00;96397.91;5065542;28;19965;-70
2023/12/14 11:05:29;;;;;;;;;;;;;;;6.81;100.00;96399.53;5065532;28;19954;-71
2023/12/14 11:07:57;;;;;;;;;;;;;;;6.85;100.00;96401.53;5064962;28;19965;-71
2023/12/14 11:10:27;;;;;;;;;;;;;;;6.87;100.00;96401.34;5065265;28;19954;-71
2023/12/14 11:13:01;;;;;;;;;;;;;;;6.93;100.00;96400.56;5065080;28;19957;-70
2023/12/14 11:15:33;;;;;;;;;;;;;;;6.95;100.00;96402.97;5064992;28;19967;-70
2023/12/14 11:18:08;;;;;;;;;;;;;;;7.01;100.00;96399.56;5065095;28;20237;-75
2023/12/14 11:20:54;;;;;;;;;;;;;;;7.27;100.00;96391.03;5065118;28;20118;-70
2023/12/14 11:23:23;;;;;;;;;;;;;;;7.52;100.00;96388.66;5064678;28;19960;-71
2023/12/14 11:25:51;;;;;;;;;;;;;;;7.55;100.00;96405.72;5065118;28;19955;-71
2023/12/14 11:28:17;;;;;;;;;;;;;;;7.67;100.00;96409.34;5065345;28;20226;-71
2023/12/14 11:30:46;;;;;;;;;;;;;;;7.99;100.00;96412.16;5065268;28;19994;-70
2023/12/14 11:33:13;;;;;;;;;;;;;;;8.26;100.00;96403.25;5064651;28;19986;-71
2023/12/14 11:35:39;;;;;;;;;;;;;;;8.40;100.00;96414.50;5064682;28;19968;-71
2023/12/14 11:38:12;;;;;;;;;;;;;;;8.48;100.00;96422.16;5065057;28;19957;-70
2023/12/14 11:40:44;;;;;;;;;;;;;;;8.52;100.00;96430.38;5064836;28;19959;-70
2023/12/14 11:43:10;;;;;;;;;;;;;;;8.47;100.00;96422.34;5064723;28;19962;-70
2023/12/14 11:45:36;;;;;;;;;;;;;;;8.34;100.00;96428.38;5064114;28;20016;-69
2023/12/14 11:48:06;;;;;;;;;;;;;;;8.26;100.00;96439.84;5064739;28;19950;-70
2023/12/14 11:50:35;;;;;;;;;;;;;;;8.22;100.00;96438.63;5064741;28;19959;-70
2023/12/14 11:53:04;;;;;;;;;;;;;;;8.14;100.00;96447.47;5064472;28;19949;-74
2023/12/14 11:55:31;;;;;;;;;;;;;;;8.06;100.00;96450.31;5046379;28;19966;-72
2023/12/14 11:57:57;;;;;;;;;;;;;;;7.99;100.00;96457.34;5064280;28;19955;-70
2023/12/14 12:00:24;;;;;;;;;;;;;;;7.85;100.00;96443.50;5064766;28;20140;-70
2023/12/14 12:02:50;;;;;;;;;;;;;;;7.80;100.00;96456.31;5064299;28;20140;-69
2023/12/14 12:05:18;;;;;;;;;;;;;;;7.77;100.00;96463.75;5064322;28;19958;-70
2023/12/14 12:07:44;;;;;;;;;;;;;;;7.69;100.00;96462.94;5064258;28;19967;-70
2023/12/14 12:10:11;;;;;;;;;;;;;;;7.65;100.00;96460.94;5064344;28;19956;-70
2023/12/14 12:12:37;;;;;;;;;;;;;;;7.50;100.00;96464.53;5064384;28;20238;-72
2023/12/14 12:15:03;;;;;;;;;;;;;;;7.42;100.00;96469.91;5064338;28;19976;-73
2023/12/14 12:17:29;;;;;;;;;;;;;;;7.37;100.00;96469.72;5064402;28;19974;-74
2023/12/14 12:19:55;;;;;;;;;;;;;;;7.32;100.00;96472.09;5063828;28;19975;-73
2023/12/14 12:22:21;;;;;;;;;;;;;;;7.28;100.00;96476.88;5064289;28;20012;-73
2023/12/14 12:24:46;;;;;;;;;;;;;;;7.30;100.00;96482.72;5062673;28;19953;-75
2023/12/14 12:27:12;;;;;;;;;;;;;;;7.37;100.00;96482.75;5064439;28;20298;-74
2023/12/14 12:29:38;;;;;;;;;;;;;;;7.45;100.00;96485.16;5064401;28;20184;-74
2023/12/14 12:32:04;;;;;;;;;;;;;;;7.51;100.00;96475.75;5064264;28;19980;-73
2023/12/14 12:34:30;;;;;;;;;;;;;;;7.56;100.00;96478.59;5063747;28;19959;-74
2023/12/14 12:36:57;;;;;;;;;;;;;;;7.53;100.00;96465.91;5064006;28;19959;-73
2023/12/14 12:39:23;;;;;;;;;;;;;;;7.50;100.00;96477.56;5064186;28;19960;-74
2023/12/14 12:41:49;;;;;;;;;;;;;;;7.53;100.00;96481.56;5063994;28;20178;-74
2023/12/14 12:44:15;;;;;;;;;;;;;;;7.56;100.00;96472.53;5064664;28;19954;-74